sensor_id;sensor_type;location;lat;lon;timestamp;P1;durP1;ratioP1;P2;durP2;ratioP2
14681;SDS011;7429;52.498;13.480;2022-10-18T00:02:59;19.70;;;16.77;;
14681;SDS011;7429;52.498;13.480;2022-10-18T00:06:02;22.80;;;15.38;;
14681;SDS011;7429;52.498;13.480;2022-10-18T00:09:10;19.30;;;17.35;;
14681;SDS011;7429;52.498;13.480;2022-10-18T00:12:14;22.33;;;15.15;;
14681;SDS011;7429;52.498;13.480;2022-10-18T00:15:17;18.47;;;14.27;;
14681;SDS011;7429;52.498;13.480;2022-10-18T00:18:21;19.63;;;16.55;;
14681;SDS011;7429;52.498;13.480;2022-10-18T00:21:24;32.10;;;16.98;;
14681;SDS011;7429;52.498;13.480;2022-10-18T00:24:29;18.00;;;14.90;;
14681;SDS011;7429;52.498;13.480;2022-10-18T00:27:32;23.95;;;15.45;;
14681;SDS011;7429;52.498;13.480;2022-10-18T00:30:36;23.50;;;15.37;;
14681;SDS011;7429;52.498;13.480;2022-10-18T00:33:39;20.30;;;16.67;;
14681;SDS011;7429;52.498;13.480;2022-10-18T00:36:43;18.70;;;14.45;;
14681;SDS011;7429;52.498;13.480;2022-10-18T00:39:48;19.30;;;15.00;;
14681;SDS011;7429;52.498;13.480;2022-10-18T00:42:54;19.48;;;16.02;;
14681;SDS011;7429;52.498;13.480;2022-10-18T00:45:56;19.75;;;15.23;;
14681;SDS011;7429;52.498;13.480;2022-10-18T00:49:04;23.43;;;15.43;;
14681;SDS011;7429;52.498;13.480;2022-10-18T00:52:14;21.07;;;15.37;;
14681;SDS011;7429;52.498;13.480;2022-10-18T00:55:21;20.83;;;16.65;;
14681;SDS011;7429;52.498;13.480;2022-10-18T00:58:24;17.95;;;16.15;;
14681;SDS011;7429;52.498;13.480;2022-10-18T01:01:28;21.93;;;18.03;;
14681;SDS011;7429;52.498;13.480;2022-10-18T01:04:31;27.93;;;20.40;;
14681;SDS011;7429;52.498;13.480;2022-10-18T01:07:44;28.80;;;21.33;;
14681;SDS011;7429;52.498;13.480;2022-10-18T01:11:22;28.98;;;19.52;;
14681;SDS011;7429;52.498;13.480;2022-10-18T01:14:49;28.90;;;18.58;;
14681;SDS011;7429;52.498;13.480;2022-10-18T01:18:03;24.92;;;15.88;;
14681;SDS011;7429;52.498;13.480;2022-10-18T01:21:26;18.75;;;14.80;;
14681;SDS011;7429;52.498;13.480;2022-10-18T01:24:49;20.65;;;14.75;;
14681;SDS011;7429;52.498;13.480;2022-10-18T01:28:19;17.08;;;14.27;;
14681;SDS011;7429;52.498;13.480;2022-10-18T01:31:41;18.77;;;14.30;;
14681;SDS011;7429;52.498;13.480;2022-10-18T01:34:48;21.45;;;14.93;;
14681;SDS011;7429;52.498;13.480;2022-10-18T01:37:55;17.52;;;15.35;;
14681;SDS011;7429;52.498;13.480;2022-10-18T01:41:01;17.45;;;14.05;;
14681;SDS011;7429;52.498;13.480;2022-10-18T01:44:07;18.40;;;15.05;;
14681;SDS011;7429;52.498;13.480;2022-10-18T01:47:17;18.08;;;15.57;;
14681;SDS011;7429;52.498;13.480;2022-10-18T01:50:26;19.42;;;14.70;;
14681;SDS011;7429;52.498;13.480;2022-10-18T01:53:31;22.13;;;15.13;;
14681;SDS011;7429;52.498;13.480;2022-10-18T01:56:37;22.70;;;15.30;;
14681;SDS011;7429;52.498;13.480;2022-10-18T01:59:49;20.50;;;14.95;;
14681;SDS011;7429;52.498;13.480;2022-10-18T02:03:00;21.98;;;16.80;;
14681;SDS011;7429;52.498;13.480;2022-10-18T02:06:09;18.35;;;15.93;;
14681;SDS011;7429;52.498;13.480;2022-10-18T02:09:23;23.08;;;16.83;;
14681;SDS011;7429;52.498;13.480;2022-10-18T02:12:39;28.88;;;17.40;;
14681;SDS011;7429;52.498;13.480;2022-10-18T02:15:46;22.70;;;18.33;;
14681;SDS011;7429;52.498;13.480;2022-10-18T02:18:56;22.88;;;16.40;;
14681;SDS011;7429;52.498;13.480;2022-10-18T02:22:02;20.75;;;18.02;;
14681;SDS011;7429;52.498;13.480;2022-10-18T02:25:09;19.08;;;16.60;;
14681;SDS011;7429;52.498;13.480;2022-10-18T02:28:18;19.35;;;17.35;;
14681;SDS011;7429;52.498;13.480;2022-10-18T02:31:23;19.27;;;14.98;;
14681;SDS011;7429;52.498;13.480;2022-10-18T02:34:34;22.25;;;16.05;;
14681;SDS011;7429;52.498;13.480;2022-10-18T02:37:42;17.17;;;15.52;;
14681;SDS011;7429;52.498;13.480;2022-10-18T02:40:46;20.00;;;15.95;;
14681;SDS011;7429;52.498;13.480;2022-10-18T02:43:49;16.73;;;14.88;;
14681;SDS011;7429;52.498;13.480;2022-10-18T02:46:52;23.15;;;16.17;;
14681;SDS011;7429;52.498;13.480;2022-10-18T02:49:56;18.90;;;16.45;;
14681;SDS011;7429;52.498;13.480;2022-10-18T02:52:59;17.42;;;15.65;;
14681;SDS011;7429;52.498;13.480;2022-10-18T02:56:02;22.33;;;16.25;;
14681;SDS011;7429;52.498;13.480;2022-10-18T02:59:06;22.60;;;16.95;;
14681;SDS011;7429;52.498;13.480;2022-10-18T03:02:09;20.48;;;18.17;;
14681;SDS011;7429;52.498;13.480;2022-10-18T03:05:14;19.27;;;17.35;;
14681;SDS011;7429;52.498;13.480;2022-10-18T03:08:17;25.73;;;18.40;;
14681;SDS011;7429;52.498;13.480;2022-10-18T03:11:22;21.90;;;17.27;;
14681;SDS011;7429;52.498;13.480;2022-10-18T03:14:25;19.05;;;17.10;;
14681;SDS011;7429;52.498;13.480;2022-10-18T03:17:28;20.00;;;17.83;;
14681;SDS011;7429;52.498;13.480;2022-10-18T03:20:33;18.73;;;16.77;;
14681;SDS011;7429;52.498;13.480;2022-10-18T03:23:36;24.35;;;18.58;;
14681;SDS011;7429;52.498;13.480;2022-10-18T03:26:41;22.73;;;16.55;;
14681;SDS011;7429;52.498;13.480;2022-10-18T03:29:44;19.65;;;17.05;;
14681;SDS011;7429;52.498;13.480;2022-10-18T03:32:47;20.70;;;18.23;;
14681;SDS011;7429;52.498;13.480;2022-10-18T03:35:52;21.23;;;17.15;;
14681;SDS011;7429;52.498;13.480;2022-10-18T03:38:54;21.40;;;19.10;;
14681;SDS011;7429;52.498;13.480;2022-10-18T03:41:57;21.05;;;19.00;;
14681;SDS011;7429;52.498;13.480;2022-10-18T03:45:00;21.73;;;19.60;;
14681;SDS011;7429;52.498;13.480;2022-10-18T03:48:03;23.48;;;18.42;;
14681;SDS011;7429;52.498;13.480;2022-10-18T03:51:08;19.23;;;17.10;;
14681;SDS011;7429;52.498;13.480;2022-10-18T03:54:11;19.40;;;16.65;;
14681;SDS011;7429;52.498;13.480;2022-10-18T03:57:14;24.33;;;17.10;;
14681;SDS011;7429;52.498;13.480;2022-10-18T04:00:17;23.35;;;20.92;;
14681;SDS011;7429;52.498;13.480;2022-10-18T04:03:21;24.90;;;18.02;;
14681;SDS011;7429;52.498;13.480;2022-10-18T04:06:25;19.02;;;15.85;;
14681;SDS011;7429;52.498;13.480;2022-10-18T04:09:29;19.48;;;17.48;;
14681;SDS011;7429;52.498;13.480;2022-10-18T04:12:32;22.02;;;15.77;;
14681;SDS011;7429;52.498;13.480;2022-10-18T04:15:35;18.60;;;16.75;;
14681;SDS011;7429;52.498;13.480;2022-10-18T04:18:38;18.95;;;15.65;;
14681;SDS011;7429;52.498;13.480;2022-10-18T04:21:42;20.67;;;16.00;;
14681;SDS011;7429;52.498;13.480;2022-10-18T04:24:45;20.25;;;16.13;;
14681;SDS011;7429;52.498;13.480;2022-10-18T04:27:48;21.60;;;18.95;;
14681;SDS011;7429;52.498;13.480;2022-10-18T04:30:51;19.75;;;15.82;;
14681;SDS011;7429;52.498;13.480;2022-10-18T04:33:55;17.17;;;15.18;;
14681;SDS011;7429;52.498;13.480;2022-10-18T04:36:59;20.75;;;16.58;;
14681;SDS011;7429;52.498;13.480;2022-10-18T04:40:02;17.80;;;15.93;;
14681;SDS011;7429;52.498;13.480;2022-10-18T04:43:06;20.85;;;15.43;;
14681;SDS011;7429;52.498;13.480;2022-10-18T04:46:09;17.60;;;15.73;;
14681;SDS011;7429;52.498;13.480;2022-10-18T04:49:12;19.58;;;14.85;;
14681;SDS011;7429;52.498;13.480;2022-10-18T04:52:16;18.25;;;15.65;;
14681;SDS011;7429;52.498;13.480;2022-10-18T04:55:20;18.40;;;14.20;;
14681;SDS011;7429;52.498;13.480;2022-10-18T04:58:23;18.38;;;13.50;;
14681;SDS011;7429;52.498;13.480;2022-10-18T05:01:26;14.15;;;12.60;;
14681;SDS011;7429;52.498;13.480;2022-10-18T05:04:29;15.52;;;13.60;;
14681;SDS011;7429;52.498;13.480;2022-10-18T05:07:33;14.32;;;12.63;;
14681;SDS011;7429;52.498;13.480;2022-10-18T05:10:36;13.18;;;11.80;;
14681;SDS011;7429;52.498;13.480;2022-10-18T05:13:39;13.32;;;12.05;;
14681;SDS011;7429;52.498;13.480;2022-10-18T05:16:46;15.25;;;13.68;;
14681;SDS011;7429;52.498;13.480;2022-10-18T05:19:49;14.75;;;13.25;;
14681;SDS011;7429;52.498;13.480;2022-10-18T05:22:53;15.82;;;13.73;;
14681;SDS011;7429;52.498;13.480;2022-10-18T05:25:59;13.82;;;12.43;;
14681;SDS011;7429;52.498;13.480;2022-10-18T05:29:04;21.05;;;14.90;;
14681;SDS011;7429;52.498;13.480;2022-10-18T05:32:07;14.93;;;13.43;;
14681;SDS011;7429;52.498;13.480;2022-10-18T05:35:10;15.20;;;13.57;;
14681;SDS011;7429;52.498;13.480;2022-10-18T05:38:15;16.63;;;15.02;;
14681;SDS011;7429;52.498;13.480;2022-10-18T05:41:18;19.52;;;15.23;;
14681;SDS011;7429;52.498;13.480;2022-10-18T05:44:21;12.95;;;11.27;;
14681;SDS011;7429;52.498;13.480;2022-10-18T05:47:24;18.88;;;16.52;;
14681;SDS011;7429;52.498;13.480;2022-10-18T05:50:27;20.33;;;14.45;;
14681;SDS011;7429;52.498;13.480;2022-10-18T05:53:32;19.55;;;14.05;;
14681;SDS011;7429;52.498;13.480;2022-10-18T05:56:38;14.30;;;12.60;;
14681;SDS011;7429;52.498;13.480;2022-10-18T05:59:42;17.30;;;14.90;;
14681;SDS011;7429;52.498;13.480;2022-10-18T06:02:45;14.77;;;13.25;;
14681;SDS011;7429;52.498;13.480;2022-10-18T06:05:48;15.23;;;13.48;;
14681;SDS011;7429;52.498;13.480;2022-10-18T06:08:52;18.75;;;15.35;;
14681;SDS011;7429;52.498;13.480;2022-10-18T06:11:55;19.80;;;15.80;;
14681;SDS011;7429;52.498;13.480;2022-10-18T06:14:58;17.35;;;15.65;;
14681;SDS011;7429;52.498;13.480;2022-10-18T06:18:01;15.65;;;14.13;;
14681;SDS011;7429;52.498;13.480;2022-10-18T06:21:05;17.20;;;14.52;;
14681;SDS011;7429;52.498;13.480;2022-10-18T06:24:10;14.27;;;12.77;;
14681;SDS011;7429;52.498;13.480;2022-10-18T06:27:13;15.73;;;13.63;;
14681;SDS011;7429;52.498;13.480;2022-10-18T06:30:16;16.92;;;13.77;;
14681;SDS011;7429;52.498;13.480;2022-10-18T06:33:19;15.63;;;13.80;;
14681;SDS011;7429;52.498;13.480;2022-10-18T06:36:22;14.65;;;12.65;;
14681;SDS011;7429;52.498;13.480;2022-10-18T06:39:28;19.02;;;14.63;;
14681;SDS011;7429;52.498;13.480;2022-10-18T06:42:31;15.63;;;14.02;;
14681;SDS011;7429;52.498;13.480;2022-10-18T06:45:34;15.38;;;13.60;;
14681;SDS011;7429;52.498;13.480;2022-10-18T06:48:37;14.98;;;12.73;;
14681;SDS011;7429;52.498;13.480;2022-10-18T06:51:40;15.88;;;13.73;;
14681;SDS011;7429;52.498;13.480;2022-10-18T06:54:46;16.00;;;13.35;;
14681;SDS011;7429;52.498;13.480;2022-10-18T06:57:49;17.13;;;15.35;;
14681;SDS011;7429;52.498;13.480;2022-10-18T07:00:52;17.33;;;14.27;;
14681;SDS011;7429;52.498;13.480;2022-10-18T07:03:55;16.95;;;15.20;;
14681;SDS011;7429;52.498;13.480;2022-10-18T07:06:58;18.55;;;14.98;;
14681;SDS011;7429;52.498;13.480;2022-10-18T07:10:03;17.27;;;14.30;;
14681;SDS011;7429;52.498;13.480;2022-10-18T07:13:07;18.98;;;14.45;;
14681;SDS011;7429;52.498;13.480;2022-10-18T07:16:31;14.00;;;12.60;;
14681;SDS011;7429;52.498;13.480;2022-10-18T07:19:35;16.23;;;13.65;;
14681;SDS011;7429;52.498;13.480;2022-10-18T07:22:38;18.27;;;14.82;;
14681;SDS011;7429;52.498;13.480;2022-10-18T07:25:42;18.77;;;14.55;;
14681;SDS011;7429;52.498;13.480;2022-10-18T07:28:46;15.63;;;13.93;;
14681;SDS011;7429;52.498;13.480;2022-10-18T07:31:51;16.50;;;13.05;;
14681;SDS011;7429;52.498;13.480;2022-10-18T07:34:54;17.38;;;15.02;;
14681;SDS011;7429;52.498;13.480;2022-10-18T07:37:57;16.02;;;13.50;;
14681;SDS011;7429;52.498;13.480;2022-10-18T07:41:02;22.05;;;16.40;;
14681;SDS011;7429;52.498;13.480;2022-10-18T07:44:07;18.00;;;15.13;;
14681;SDS011;7429;52.498;13.480;2022-10-18T07:47:11;17.90;;;15.05;;
14681;SDS011;7429;52.498;13.480;2022-10-18T07:50:15;22.98;;;16.15;;
14681;SDS011;7429;52.498;13.480;2022-10-18T07:53:18;17.77;;;15.63;;
14681;SDS011;7429;52.498;13.480;2022-10-18T07:56:22;23.63;;;15.93;;
14681;SDS011;7429;52.498;13.480;2022-10-18T07:59:25;22.10;;;16.45;;
14681;SDS011;7429;52.498;13.480;2022-10-18T08:02:28;22.80;;;18.10;;
14681;SDS011;7429;52.498;13.480;2022-10-18T08:05:31;21.55;;;19.17;;
14681;SDS011;7429;52.498;13.480;2022-10-18T08:08:34;21.67;;;19.35;;
14681;SDS011;7429;52.498;13.480;2022-10-18T08:11:40;20.83;;;18.80;;
14681;SDS011;7429;52.498;13.480;2022-10-18T08:14:43;18.83;;;15.43;;
14681;SDS011;7429;52.498;13.480;2022-10-18T08:17:47;18.35;;;14.57;;
14681;SDS011;7429;52.498;13.480;2022-10-18T08:20:50;16.92;;;15.18;;
14681;SDS011;7429;52.498;13.480;2022-10-18T08:23:53;17.20;;;15.50;;
14681;SDS011;7429;52.498;13.480;2022-10-18T08:26:57;16.15;;;13.88;;
14681;SDS011;7429;52.498;13.480;2022-10-18T08:30:00;16.67;;;14.90;;
14681;SDS011;7429;52.498;13.480;2022-10-18T08:33:04;18.13;;;16.40;;
14681;SDS011;7429;52.498;13.480;2022-10-18T08:36:07;17.10;;;15.50;;
14681;SDS011;7429;52.498;13.480;2022-10-18T08:39:14;17.55;;;15.05;;
14681;SDS011;7429;52.498;13.480;2022-10-18T08:42:22;16.15;;;14.35;;
14681;SDS011;7429;52.498;13.480;2022-10-18T08:45:40;16.33;;;14.00;;
14681;SDS011;7429;52.498;13.480;2022-10-18T08:48:44;18.67;;;14.77;;
14681;SDS011;7429;52.498;13.480;2022-10-18T08:51:51;16.95;;;14.50;;
14681;SDS011;7429;52.498;13.480;2022-10-18T08:54:57;19.88;;;16.17;;
14681;SDS011;7429;52.498;13.480;2022-10-18T08:58:12;17.27;;;14.85;;
14681;SDS011;7429;52.498;13.480;2022-10-18T09:01:22;18.02;;;12.32;;
14681;SDS011;7429;52.498;13.480;2022-10-18T09:04:39;16.77;;;12.63;;
14681;SDS011;7429;52.498;13.480;2022-10-18T09:07:55;16.80;;;14.43;;
14681;SDS011;7429;52.498;13.480;2022-10-18T09:14:55;14.18;;;12.88;;
14681;SDS011;7429;52.498;13.480;2022-10-18T09:18:22;14.45;;;13.07;;
14681;SDS011;7429;52.498;13.480;2022-10-18T09:21:45;14.50;;;13.02;;
14681;SDS011;7429;52.498;13.480;2022-10-18T09:24:55;15.20;;;13.63;;
14681;SDS011;7429;52.498;13.480;2022-10-18T09:28:13;14.00;;;11.90;;
14681;SDS011;7429;52.498;13.480;2022-10-18T09:31:23;15.15;;;12.13;;
14681;SDS011;7429;52.498;13.480;2022-10-18T09:34:38;13.60;;;12.38;;
14681;SDS011;7429;52.498;13.480;2022-10-18T09:37:51;17.42;;;11.98;;
14681;SDS011;7429;52.498;13.480;2022-10-18T09:41:01;15.60;;;12.73;;
14681;SDS011;7429;52.498;13.480;2022-10-18T09:44:13;17.38;;;13.25;;
14681;SDS011;7429;52.498;13.480;2022-10-18T09:47:23;15.18;;;13.68;;
14681;SDS011;7429;52.498;13.480;2022-10-18T09:50:33;13.88;;;12.40;;
14681;SDS011;7429;52.498;13.480;2022-10-18T09:53:41;13.25;;;10.70;;
14681;SDS011;7429;52.498;13.480;2022-10-18T09:57:01;15.23;;;12.00;;
14681;SDS011;7429;52.498;13.480;2022-10-18T10:00:13;22.45;;;12.40;;
14681;SDS011;7429;52.498;13.480;2022-10-18T10:03:24;13.13;;;11.40;;
14681;SDS011;7429;52.498;13.480;2022-10-18T10:06:28;12.18;;;10.45;;
14681;SDS011;7429;52.498;13.480;2022-10-18T10:09:36;14.35;;;11.07;;
14681;SDS011;7429;52.498;13.480;2022-10-18T10:12:43;15.05;;;12.32;;
14681;SDS011;7429;52.498;13.480;2022-10-18T10:15:51;14.77;;;11.93;;
14681;SDS011;7429;52.498;13.480;2022-10-18T10:18:58;13.75;;;11.80;;
14681;SDS011;7429;52.498;13.480;2022-10-18T10:22:02;12.63;;;11.23;;
14681;SDS011;7429;52.498;13.480;2022-10-18T10:25:17;14.05;;;12.68;;
14681;SDS011;7429;52.498;13.480;2022-10-18T10:28:25;16.73;;;13.93;;
14681;SDS011;7429;52.498;13.480;2022-10-18T10:31:30;16.08;;;13.48;;
14681;SDS011;7429;52.498;13.480;2022-10-18T10:34:35;18.75;;;13.30;;
14681;SDS011;7429;52.498;13.480;2022-10-18T10:37:44;22.00;;;15.95;;
14681;SDS011;7429;52.498;13.480;2022-10-18T10:40:53;17.17;;;14.10;;
14681;SDS011;7429;52.498;13.480;2022-10-18T10:43:56;17.00;;;13.90;;
14681;SDS011;7429;52.498;13.480;2022-10-18T10:46:59;17.55;;;14.68;;
14681;SDS011;7429;52.498;13.480;2022-10-18T10:50:08;17.08;;;15.38;;
14681;SDS011;7429;52.498;13.480;2022-10-18T10:53:20;13.82;;;12.55;;
14681;SDS011;7429;52.498;13.480;2022-10-18T10:56:53;15.77;;;13.23;;
14681;SDS011;7429;52.498;13.480;2022-10-18T11:00:00;15.10;;;13.55;;
14681;SDS011;7429;52.498;13.480;2022-10-18T11:03:04;15.68;;;14.07;;
14681;SDS011;7429;52.498;13.480;2022-10-18T11:06:41;14.48;;;12.98;;
14681;SDS011;7429;52.498;13.480;2022-10-18T11:09:53;14.73;;;13.23;;
14681;SDS011;7429;52.498;13.480;2022-10-18T11:13:02;14.10;;;12.68;;
14681;SDS011;7429;52.498;13.480;2022-10-18T11:16:20;17.55;;;14.63;;
14681;SDS011;7429;52.498;13.480;2022-10-18T11:19:36;16.45;;;14.75;;
14681;SDS011;7429;52.498;13.480;2022-10-18T11:22:49;16.65;;;15.10;;
14681;SDS011;7429;52.498;13.480;2022-10-18T11:26:12;17.52;;;15.93;;
14681;SDS011;7429;52.498;13.480;2022-10-18T11:29:36;14.20;;;12.73;;
14681;SDS011;7429;52.498;13.480;2022-10-18T11:32:51;16.80;;;12.23;;
14681;SDS011;7429;52.498;13.480;2022-10-18T11:36:06;17.95;;;14.90;;
14681;SDS011;7429;52.498;13.480;2022-10-18T11:39:17;15.75;;;13.55;;
14681;SDS011;7429;52.498;13.480;2022-10-18T11:42:28;14.52;;;13.05;;
14681;SDS011;7429;52.498;13.480;2022-10-18T11:45:41;16.92;;;13.27;;
14681;SDS011;7429;52.498;13.480;2022-10-18T11:49:02;16.60;;;14.45;;
14681;SDS011;7429;52.498;13.480;2022-10-18T11:52:21;16.90;;;13.30;;
14681;SDS011;7429;52.498;13.480;2022-10-18T11:55:46;18.42;;;14.57;;
14681;SDS011;7429;52.498;13.480;2022-10-18T11:59:01;16.08;;;14.45;;
14681;SDS011;7429;52.498;13.480;2022-10-18T12:02:32;16.80;;;14.55;;
14681;SDS011;7429;52.498;13.480;2022-10-18T12:06:00;17.55;;;15.80;;
14681;SDS011;7429;52.498;13.480;2022-10-18T12:09:08;13.45;;;12.00;;
14681;SDS011;7429;52.498;13.480;2022-10-18T12:12:23;15.10;;;13.48;;
14681;SDS011;7429;52.498;13.480;2022-10-18T12:15:30;18.92;;;16.92;;
14681;SDS011;7429;52.498;13.480;2022-10-18T12:18:42;20.25;;;18.23;;
14681;SDS011;7429;52.498;13.480;2022-10-18T12:21:56;16.85;;;15.10;;
14681;SDS011;7429;52.498;13.480;2022-10-18T12:25:12;17.77;;;15.85;;
14681;SDS011;7429;52.498;13.480;2022-10-18T12:28:21;20.20;;;17.45;;
14681;SDS011;7429;52.498;13.480;2022-10-18T12:31:33;19.75;;;16.85;;
14681;SDS011;7429;52.498;13.480;2022-10-18T12:34:41;15.43;;;13.48;;
14681;SDS011;7429;52.498;13.480;2022-10-18T12:37:51;17.55;;;14.85;;
14681;SDS011;7429;52.498;13.480;2022-10-18T12:41:09;16.60;;;14.43;;
14681;SDS011;7429;52.498;13.480;2022-10-18T12:44:25;17.20;;;14.57;;
14681;SDS011;7429;52.498;13.480;2022-10-18T12:47:32;15.32;;;13.73;;
14681;SDS011;7429;52.498;13.480;2022-10-18T12:50:37;15.13;;;13.45;;
14681;SDS011;7429;52.498;13.480;2022-10-18T12:53:44;16.10;;;14.50;;
14681;SDS011;7429;52.498;13.480;2022-10-18T12:56:49;15.25;;;13.63;;
14681;SDS011;7429;52.498;13.480;2022-10-18T12:59:53;17.08;;;12.55;;
14681;SDS011;7429;52.498;13.480;2022-10-18T13:07:16;16.40;;;13.93;;
14681;SDS011;7429;52.498;13.480;2022-10-18T13:10:33;16.58;;;14.82;;
14681;SDS011;7429;52.498;13.480;2022-10-18T13:13:40;17.15;;;15.50;;
14681;SDS011;7429;52.498;13.480;2022-10-18T13:16:55;19.15;;;17.48;;
14681;SDS011;7429;52.498;13.480;2022-10-18T13:20:10;17.38;;;15.77;;
14681;SDS011;7429;52.498;13.480;2022-10-18T13:23:31;16.83;;;14.30;;
14681;SDS011;7429;52.498;13.480;2022-10-18T13:26:46;18.17;;;15.27;;
14681;SDS011;7429;52.498;13.480;2022-10-18T13:30:40;15.25;;;13.68;;
14681;SDS011;7429;52.498;13.480;2022-10-18T13:33:54;15.98;;;14.27;;
14681;SDS011;7429;52.498;13.480;2022-10-18T13:36:58;19.65;;;17.85;;
14681;SDS011;7429;52.498;13.480;2022-10-18T13:40:20;16.65;;;13.63;;
14681;SDS011;7429;52.498;13.480;2022-10-18T13:47:32;18.50;;;16.10;;
14681;SDS011;7429;52.498;13.480;2022-10-18T13:50:38;18.00;;;16.40;;
14681;SDS011;7429;52.498;13.480;2022-10-18T13:53:46;17.77;;;16.17;;
14681;SDS011;7429;52.498;13.480;2022-10-18T13:57:04;15.68;;;14.02;;
14681;SDS011;7429;52.498;13.480;2022-10-18T14:00:28;16.95;;;12.75;;
14681;SDS011;7429;52.498;13.480;2022-10-18T14:03:56;12.75;;;11.35;;
14681;SDS011;7429;52.498;13.480;2022-10-18T14:07:37;14.38;;;12.02;;
14681;SDS011;7429;52.498;13.480;2022-10-18T14:10:43;14.07;;;12.43;;
14681;SDS011;7429;52.498;13.480;2022-10-18T14:14:05;14.82;;;12.93;;
14681;SDS011;7429;52.498;13.480;2022-10-18T14:17:18;14.35;;;12.95;;
14681;SDS011;7429;52.498;13.480;2022-10-18T14:20:31;16.95;;;12.13;;
14681;SDS011;7429;52.498;13.480;2022-10-18T14:23:57;19.17;;;15.23;;
14681;SDS011;7429;52.498;13.480;2022-10-18T14:27:10;16.70;;;15.02;;
14681;SDS011;7429;52.498;13.480;2022-10-18T14:30:19;13.50;;;12.15;;
14681;SDS011;7429;52.498;13.480;2022-10-18T14:33:31;16.08;;;14.02;;
14681;SDS011;7429;52.498;13.480;2022-10-18T14:36:38;18.05;;;14.75;;
14681;SDS011;7429;52.498;13.480;2022-10-18T14:39:44;17.33;;;14.48;;
14681;SDS011;7429;52.498;13.480;2022-10-18T14:42:48;16.35;;;14.00;;
14681;SDS011;7429;52.498;13.480;2022-10-18T14:45:51;15.77;;;14.07;;
14681;SDS011;7429;52.498;13.480;2022-10-18T14:49:10;15.60;;;13.75;;
14681;SDS011;7429;52.498;13.480;2022-10-18T14:52:15;15.80;;;12.73;;
14681;SDS011;7429;52.498;13.480;2022-10-18T14:55:25;18.10;;;12.15;;
14681;SDS011;7429;52.498;13.480;2022-10-18T14:58:29;13.65;;;12.15;;
14681;SDS011;7429;52.498;13.480;2022-10-18T15:01:33;15.60;;;13.32;;
14681;SDS011;7429;52.498;13.480;2022-10-18T15:04:36;17.17;;;12.25;;
14681;SDS011;7429;52.498;13.480;2022-10-18T15:07:39;15.60;;;12.50;;
14681;SDS011;7429;52.498;13.480;2022-10-18T15:10:44;17.13;;;13.98;;
14681;SDS011;7429;52.498;13.480;2022-10-18T15:13:47;15.45;;;12.98;;
14681;SDS011;7429;52.498;13.480;2022-10-18T15:16:56;18.08;;;14.55;;
14681;SDS011;7429;52.498;13.480;2022-10-18T15:20:16;18.92;;;14.85;;
14681;SDS011;7429;52.498;13.480;2022-10-18T15:23:23;23.55;;;16.25;;
14681;SDS011;7429;52.498;13.480;2022-10-18T15:26:32;17.80;;;16.00;;
14681;SDS011;7429;52.498;13.480;2022-10-18T15:29:35;17.52;;;15.80;;
14681;SDS011;7429;52.498;13.480;2022-10-18T15:32:45;21.10;;;15.68;;
14681;SDS011;7429;52.498;13.480;2022-10-18T15:35:51;21.25;;;16.10;;
14681;SDS011;7429;52.498;13.480;2022-10-18T15:39:05;19.05;;;17.05;;
14681;SDS011;7429;52.498;13.480;2022-10-18T15:45:44;22.15;;;19.52;;
14681;SDS011;7429;52.498;13.480;2022-10-18T15:48:53;21.88;;;16.92;;
14681;SDS011;7429;52.498;13.480;2022-10-18T15:52:39;22.50;;;16.15;;
14681;SDS011;7429;52.498;13.480;2022-10-18T15:55:44;24.48;;;16.92;;
14681;SDS011;7429;52.498;13.480;2022-10-18T15:58:51;23.45;;;19.13;;
14681;SDS011;7429;52.498;13.480;2022-10-18T16:01:55;23.25;;;18.52;;
14681;SDS011;7429;52.498;13.480;2022-10-18T16:04:58;23.17;;;17.65;;
14681;SDS011;7429;52.498;13.480;2022-10-18T16:08:02;26.23;;;18.83;;
14681;SDS011;7429;52.498;13.480;2022-10-18T16:11:06;22.95;;;18.33;;
14681;SDS011;7429;52.498;13.480;2022-10-18T16:14:11;26.87;;;17.87;;
14681;SDS011;7429;52.498;13.480;2022-10-18T16:17:14;23.55;;;17.52;;
14681;SDS011;7429;52.498;13.480;2022-10-18T16:20:18;24.02;;;18.33;;
14681;SDS011;7429;52.498;13.480;2022-10-18T16:23:25;22.88;;;17.75;;
14681;SDS011;7429;52.498;13.480;2022-10-18T16:26:29;25.92;;;19.67;;
14681;SDS011;7429;52.498;13.480;2022-10-18T16:29:34;24.53;;;18.53;;
14681;SDS011;7429;52.498;13.480;2022-10-18T16:32:37;23.90;;;18.23;;
14681;SDS011;7429;52.498;13.480;2022-10-18T16:35:41;23.77;;;16.67;;
14681;SDS011;7429;52.498;13.480;2022-10-18T16:38:43;25.43;;;18.03;;
14681;SDS011;7429;52.498;13.480;2022-10-18T16:41:48;24.83;;;17.37;;
14681;SDS011;7429;52.498;13.480;2022-10-18T16:44:52;19.55;;;16.42;;
14681;SDS011;7429;52.498;13.480;2022-10-18T16:47:55;21.53;;;16.73;;
14681;SDS011;7429;52.498;13.480;2022-10-18T16:50:58;20.70;;;15.53;;
14681;SDS011;7429;52.498;13.480;2022-10-18T16:54:02;22.10;;;16.17;;
14681;SDS011;7429;52.498;13.480;2022-10-18T16:57:05;19.95;;;17.02;;
14681;SDS011;7429;52.498;13.480;2022-10-18T17:00:14;24.40;;;19.83;;
14681;SDS011;7429;52.498;13.480;2022-10-18T17:03:21;30.10;;;20.10;;
14681;SDS011;7429;52.498;13.480;2022-10-18T17:06:24;30.80;;;19.93;;
14681;SDS011;7429;52.498;13.480;2022-10-18T17:09:29;44.30;;;27.50;;
14681;SDS011;7429;52.498;13.480;2022-10-18T17:12:35;35.77;;;25.63;;
14681;SDS011;7429;52.498;13.480;2022-10-18T17:15:39;30.37;;;21.87;;
14681;SDS011;7429;52.498;13.480;2022-10-18T17:18:43;26.50;;;21.43;;
14681;SDS011;7429;52.498;13.480;2022-10-18T17:21:46;26.93;;;18.80;;
14681;SDS011;7429;52.498;13.480;2022-10-18T17:24:48;25.10;;;19.47;;
14681;SDS011;7429;52.498;13.480;2022-10-18T17:27:51;25.67;;;19.10;;
14681;SDS011;7429;52.498;13.480;2022-10-18T17:30:56;28.00;;;18.80;;
14681;SDS011;7429;52.498;13.480;2022-10-18T17:33:59;25.83;;;19.23;;
14681;SDS011;7429;52.498;13.480;2022-10-18T17:37:03;30.30;;;19.47;;
14681;SDS011;7429;52.498;13.480;2022-10-18T17:40:07;27.67;;;19.27;;
14681;SDS011;7429;52.498;13.480;2022-10-18T17:43:11;30.07;;;19.73;;
14681;SDS011;7429;52.498;13.480;2022-10-18T17:46:15;25.43;;;17.37;;
14681;SDS011;7429;52.498;13.480;2022-10-18T17:49:19;27.97;;;19.40;;
14681;SDS011;7429;52.498;13.480;2022-10-18T17:52:22;28.50;;;19.50;;
14681;SDS011;7429;52.498;13.480;2022-10-18T17:55:26;31.07;;;19.67;;
14681;SDS011;7429;52.498;13.480;2022-10-18T17:58:30;22.60;;;17.40;;
14681;SDS011;7429;52.498;13.480;2022-10-18T18:01:35;23.63;;;18.37;;
14681;SDS011;7429;52.498;13.480;2022-10-18T18:04:38;28.27;;;18.87;;
14681;SDS011;7429;52.498;13.480;2022-10-18T18:07:41;24.73;;;18.50;;
14681;SDS011;7429;52.498;13.480;2022-10-18T18:10:44;24.43;;;17.70;;
14681;SDS011;7429;52.498;13.480;2022-10-18T18:13:53;27.57;;;20.20;;
14681;SDS011;7429;52.498;13.480;2022-10-18T18:16:58;30.43;;;19.33;;
14681;SDS011;7429;52.498;13.480;2022-10-18T18:20:01;27.53;;;20.23;;
14681;SDS011;7429;52.498;13.480;2022-10-18T18:23:05;26.17;;;19.97;;
14681;SDS011;7429;52.498;13.480;2022-10-18T18:26:08;25.03;;;18.43;;
14681;SDS011;7429;52.498;13.480;2022-10-18T18:29:12;26.50;;;19.93;;
14681;SDS011;7429;52.498;13.480;2022-10-18T18:32:17;31.17;;;18.70;;
14681;SDS011;7429;52.498;13.480;2022-10-18T18:35:20;27.53;;;19.27;;